sensor_id;sensor_type;location;lat;lon;timestamp;temperature;humidity
1602;DHT22;794;48.592;9.634;2024-01-11T00:01:23;-3.20;1.00
1602;DHT22;794;48.592;9.634;2024-01-11T00:03:51;-5.20;1.00
1602;DHT22;794;48.592;9.634;2024-01-11T00:06:21;-4.80;1.00
1602;DHT22;794;48.592;9.634;2024-01-11T00:08:48;-3.20;1.00
1602;DHT22;794;48.592;9.634;2024-01-11T00:11:15;-3.50;1.00
1602;DHT22;794;48.592;9.634;2024-01-11T00:13:42;-5.10;1.00
1602;DHT22;794;48.592;9.634;2024-01-11T00:16:09;-4.80;1.00
1602;DHT22;794;48.592;9.634;2024-01-11T00:18:36;-3.30;1.00
1602;DHT22;794;48.592;9.634;2024-01-11T00:21:04;-5.30;1.00
1602;DHT22;794;48.592;9.634;2024-01-11T00:23:31;-3.80;1.00
1602;DHT22;794;48.592;9.634;2024-01-11T00:25:58;-3.70;1.00
1602;DHT22;794;48.592;9.634;2024-01-11T00:28:26;-4.00;1.00
1602;DHT22;794;48.592;9.634;2024-01-11T00:30:53;-3.50;1.00
1602;DHT22;794;48.592;9.634;2024-01-11T00:33:23;-3.30;1.00
1602;DHT22;794;48.592;9.634;2024-01-11T00:35:50;-3.10;1.00
1602;DHT22;794;48.592;9.634;2024-01-11T00:38:18;-3.50;1.00
1602;DHT22;794;48.592;9.634;2024-01-11T00:40:45;-5.10;1.00
1602;DHT22;794;48.592;9.634;2024-01-11T00:43:12;-3.60;1.00
1602;DHT22;794;48.592;9.634;2024-01-11T00:45:39;-6.10;1.00
1602;DHT22;794;48.592;9.634;2024-01-11T00:48:06;-3.90;1.00
1602;DHT22;794;48.592;9.634;2024-01-11T00:50:33;-7.10;1.00
1602;DHT22;794;48.592;9.634;2024-01-11T00:53:00;-3.50;1.00
1602;DHT22;794;48.592;9.634;2024-01-11T00:55:28;-4.50;1.00
1602;DHT22;794;48.592;9.634;2024-01-11T00:57:55;-3.60;1.00
1602;DHT22;794;48.592;9.634;2024-01-11T01:00:22;-5.20;1.00
1602;DHT22;794;48.592;9.634;2024-01-11T01:02:49;-5.50;1.00
1602;DHT22;794;48.592;9.634;2024-01-11T01:05:19;-5.00;1.00
1602;DHT22;794;48.592;9.634;2024-01-11T01:07:46;-5.70;1.00
1602;DHT22;794;48.592;9.634;2024-01-11T01:10:13;-4.70;1.00
1602;DHT22;794;48.592;9.634;2024-01-11T01:12:42;-5.40;1.00
1602;DHT22;794;48.592;9.634;2024-01-11T01:15:11;-3.90;1.00
1602;DHT22;794;48.592;9.634;2024-01-11T01:17:40;-3.50;1.00
1602;DHT22;794;48.592;9.634;2024-01-11T01:20:07;-3.50;1.00
1602;DHT22;794;48.592;9.634;2024-01-11T01:22:34;-5.40;1.00
1602;DHT22;794;48.592;9.634;2024-01-11T01:25:02;-3.80;1.00
1602;DHT22;794;48.592;9.634;2024-01-11T01:27:29;-6.10;1.00
1602;DHT22;794;48.592;9.634;2024-01-11T01:29:57;-3.90;1.00
1602;DHT22;794;48.592;9.634;2024-01-11T01:32:24;-5.40;1.00
1602;DHT22;794;48.592;9.634;2024-01-11T01:34:51;-6.40;1.00
1602;DHT22;794;48.592;9.634;2024-01-11T01:37:18;-4.40;1.00
1602;DHT22;794;48.592;9.634;2024-01-11T01:39:45;-3.70;1.00
1602;DHT22;794;48.592;9.634;2024-01-11T01:42:15;-5.70;1.00
1602;DHT22;794;48.592;9.634;2024-01-11T01:44:42;-3.80;1.00
1602;DHT22;794;48.592;9.634;2024-01-11T01:47:11;-4.10;1.00
1602;DHT22;794;48.592;9.634;2024-01-11T01:49:38;-5.70;1.00
1602;DHT22;794;48.592;9.634;2024-01-11T01:52:06;-3.80;1.00
1602;DHT22;794;48.592;9.634;2024-01-11T01:54:34;-6.20;1.00
1602;DHT22;794;48.592;9.634;2024-01-11T01:57:03;-4.20;1.00
1602;DHT22;794;48.592;9.634;2024-01-11T01:59:31;-5.20;1.00
1602;DHT22;794;48.592;9.634;2024-01-11T02:01:58;-4.10;1.00
1602;DHT22;794;48.592;9.634;2024-01-11T02:04:27;-3.70;1.00
1602;DHT22;794;48.592;9.634;2024-01-11T02:06:54;-4.50;1.00
1602;DHT22;794;48.592;9.634;2024-01-11T02:09:22;-6.50;1.00
1602;DHT22;794;48.592;9.634;2024-01-11T02:11:52;-2.90;1.00
1602;DHT22;794;48.592;9.634;2024-01-11T02:14:19;-6.30;1.00
1602;DHT22;794;48.592;9.634;2024-01-11T02:16:46;-4.10;1.00
1602;DHT22;794;48.592;9.634;2024-01-11T02:19:14;-4.40;1.00
1602;DHT22;794;48.592;9.634;2024-01-11T02:21:43;-3.90;1.00
1602;DHT22;794;48.592;9.634;2024-01-11T02:24:11;-4.10;1.00
1602;DHT22;794;48.592;9.634;2024-01-11T02:26:58;-4.40;1.00
1602;DHT22;794;48.592;9.634;2024-01-11T02:29:25;-3.90;1.00
1602;DHT22;794;48.592;9.634;2024-01-11T02:31:52;-3.70;1.00
1602;DHT22;794;48.592;9.634;2024-01-11T02:34:20;-3.90;1.00
1602;DHT22;794;48.592;9.634;2024-01-11T02:36:47;-3.50;1.00
1602;DHT22;794;48.592;9.634;2024-01-11T02:39:17;-6.70;1.00
1602;DHT22;794;48.592;9.634;2024-01-11T02:41:45;-4.30;1.00
1602;DHT22;794;48.592;9.634;2024-01-11T02:44:13;-4.10;1.00
1602;DHT22;794;48.592;9.634;2024-01-11T02:46:43;-4.40;1.00
1602;DHT22;794;48.592;9.634;2024-01-11T02:49:10;-3.70;1.00
1602;DHT22;794;48.592;9.634;2024-01-11T02:51:36;-4.40;1.00
1602;DHT22;794;48.592;9.634;2024-01-11T02:54:04;-4.50;1.00
1602;DHT22;794;48.592;9.634;2024-01-11T02:56:32;-6.50;1.00
1602;DHT22;794;48.592;9.634;2024-01-11T02:58:59;-4.90;1.00
1602;DHT22;794;48.592;9.634;2024-01-11T03:01:29;-4.20;1.00
1602;DHT22;794;48.592;9.634;2024-01-11T03:03:57;-5.20;1.00
1602;DHT22;794;48.592;9.634;2024-01-11T03:06:24;-6.60;1.00
1602;DHT22;794;48.592;9.634;2024-01-11T03:08:51;-3.90;1.00
1602;DHT22;794;48.592;9.634;2024-01-11T03:11:18;-4.20;1.00
1602;DHT22;794;48.592;9.634;2024-01-11T03:13:46;-4.20;1.00
1602;DHT22;794;48.592;9.634;2024-01-11T03:16:13;-3.80;1.00
1602;DHT22;794;48.592;9.634;2024-01-11T03:18:40;-4.30;1.00
1602;DHT22;794;48.592;9.634;2024-01-11T03:21:07;-4.30;1.00
1602;DHT22;794;48.592;9.634;2024-01-11T03:23:34;-6.10;1.00
1602;DHT22;794;48.592;9.634;2024-01-11T03:26:01;-6.20;1.00
1602;DHT22;794;48.592;9.634;2024-01-11T03:28:31;-6.40;1.00
1602;DHT22;794;48.592;9.634;2024-01-11T03:30:59;-4.50;1.00
1602;DHT22;794;48.592;9.634;2024-01-11T03:33:26;-4.20;1.00
1602;DHT22;794;48.592;9.634;2024-01-11T03:35:53;-5.30;1.00
1602;DHT22;794;48.592;9.634;2024-01-11T03:38:20;-5.80;1.00
1602;DHT22;794;48.592;9.634;2024-01-11T03:40:47;-3.70;1.00
1602;DHT22;794;48.592;9.634;2024-01-11T03:43:17;-4.50;1.00
1602;DHT22;794;48.592;9.634;2024-01-11T03:45:44;-5.70;1.00
1602;DHT22;794;48.592;9.634;2024-01-11T03:48:12;-4.00;1.00
1602;DHT22;794;48.592;9.634;2024-01-11T03:50:39;-4.10;1.00
1602;DHT22;794;48.592;9.634;2024-01-11T03:53:06;-4.30;1.00
1602;DHT22;794;48.592;9.634;2024-01-11T03:55:33;-4.00;1.00
1602;DHT22;794;48.592;9.634;2024-01-11T03:58:00;-5.40;1.00
1602;DHT22;794;48.592;9.634;2024-01-11T04:00:27;-3.70;1.00
1602;DHT22;794;48.592;9.634;2024-01-11T04:02:54;-4.60;1.00
1602;DHT22;794;48.592;9.634;2024-01-11T04:05:22;-4.70;1.00
1602;DHT22;794;48.592;9.634;2024-01-11T04:07:49;-4.90;1.00
1602;DHT22;794;48.592;9.634;2024-01-11T04:10:17;-4.50;1.00
1602;DHT22;794;48.592;9.634;2024-01-11T04:12:44;-4.20;1.00
1602;DHT22;794;48.592;9.634;2024-01-11T04:15:12;-6.60;1.00
1602;DHT22;794;48.592;9.634;2024-01-11T04:17:39;-6.60;1.00
1602;DHT22;794;48.592;9.634;2024-01-11T04:20:07;-4.10;1.00
1602;DHT22;794;48.592;9.634;2024-01-11T04:22:39;-6.20;1.00
1602;DHT22;794;48.592;9.634;2024-01-11T04:25:07;-5.00;1.00
1602;DHT22;794;48.592;9.634;2024-01-11T04:27:34;-6.50;1.00
1602;DHT22;794;48.592;9.634;2024-01-11T04:30:01;-4.30;1.00
1602;DHT22;794;48.592;9.634;2024-01-11T04:32:28;-4.40;1.00
1602;DHT22;794;48.592;9.634;2024-01-11T04:34:55;-4.20;1.00
1602;DHT22;794;48.592;9.634;2024-01-11T04:37:22;-6.30;1.00
1602;DHT22;794;48.592;9.634;2024-01-11T04:39:51;-6.80;1.00
1602;DHT22;794;48.592;9.634;2024-01-11T04:42:18;-6.00;1.00
1602;DHT22;794;48.592;9.634;2024-01-11T04:44:44;-7.10;1.00
1602;DHT22;794;48.592;9.634;2024-01-11T04:47:11;-4.40;1.00
1602;DHT22;794;48.592;9.634;2024-01-11T04:49:41;-4.20;1.00
1602;DHT22;794;48.592;9.634;2024-01-11T04:52:08;-4.60;1.00
1602;DHT22;794;48.592;9.634;2024-01-11T04:54:35;-6.50;1.00
1602;DHT22;794;48.592;9.634;2024-01-11T04:57:05;-4.80;1.00
1602;DHT22;794;48.592;9.634;2024-01-11T04:59:32;-4.10;1.00
1602;DHT22;794;48.592;9.634;2024-01-11T05:01:59;-4.60;1.00
1602;DHT22;794;48.592;9.634;2024-01-11T05:04:26;-5.60;1.00
1602;DHT22;794;48.592;9.634;2024-01-11T05:06:52;-3.90;1.00
1602;DHT22;794;48.592;9.634;2024-01-11T05:09:19;-6.40;1.00
1602;DHT22;794;48.592;9.634;2024-01-11T05:11:46;-6.50;1.00
1602;DHT22;794;48.592;9.634;2024-01-11T05:14:15;-3.90;1.00
1602;DHT22;794;48.592;9.634;2024-01-11T05:16:44;-5.50;1.00
1602;DHT22;794;48.592;9.634;2024-01-11T05:19:11;-5.70;1.00
1602;DHT22;794;48.592;9.634;2024-01-11T05:21:38;-4.20;1.00
1602;DHT22;794;48.592;9.634;2024-01-11T05:24:05;-4.80;1.00
1602;DHT22;794;48.592;9.634;2024-01-11T05:26:32;-6.60;1.00
1602;DHT22;794;48.592;9.634;2024-01-11T05:28:59;-6.50;1.00
1602;DHT22;794;48.592;9.634;2024-01-11T05:31:31;-4.30;1.00
1602;DHT22;794;48.592;9.634;2024-01-11T05:33:58;-4.50;1.00
1602;DHT22;794;48.592;9.634;2024-01-11T05:36:25;-4.30;1.00
1602;DHT22;794;48.592;9.634;2024-01-11T05:38:51;-4.20;1.00
1602;DHT22;794;48.592;9.634;2024-01-11T05:41:18;-4.80;1.00
1602;DHT22;794;48.592;9.634;2024-01-11T05:43:48;-4.30;1.00
1602;DHT22;794;48.592;9.634;2024-01-11T05:46:16;-7.10;1.00
1602;DHT22;794;48.592;9.634;2024-01-11T05:48:44;-4.20;1.00
1602;DHT22;794;48.592;9.634;2024-01-11T05:51:11;-4.10;1.00
1602;DHT22;794;48.592;9.634;2024-01-11T05:53:38;-4.30;1.00
1602;DHT22;794;48.592;9.634;2024-01-11T05:56:08;-6.80;1.00
1602;DHT22;794;48.592;9.634;2024-01-11T05:58:35;-3.70;1.00
1602;DHT22;794;48.592;9.634;2024-01-11T06:01:04;-4.20;1.00
1602;DHT22;794;48.592;9.634;2024-01-11T06:03:31;-5.00;1.00
1602;DHT22;794;48.592;9.634;2024-01-11T06:06:02;-5.30;1.00
1602;DHT22;794;48.592;9.634;2024-01-11T06:08:29;-6.50;1.00
1602;DHT22;794;48.592;9.634;2024-01-11T06:11:00;-4.40;1.00
1602;DHT22;794;48.592;9.634;2024-01-11T06:13:27;-4.30;1.00
1602;DHT22;794;48.592;9.634;2024-01-11T06:15:54;-4.70;1.00
1602;DHT22;794;48.592;9.634;2024-01-11T06:18:21;-4.30;1.00
1602;DHT22;794;48.592;9.634;2024-01-11T06:20:48;-4.60;1.00
1602;DHT22;794;48.592;9.634;2024-01-11T06:23:16;-3.90;1.00
1602;DHT22;794;48.592;9.634;2024-01-11T06:25:45;-4.00;1.00
1602;DHT22;794;48.592;9.634;2024-01-11T06:28:12;-5.90;1.00
1602;DHT22;794;48.592;9.634;2024-01-11T06:30:39;-5.20;1.00
1602;DHT22;794;48.592;9.634;2024-01-11T06:33:06;-4.50;1.00
1602;DHT22;794;48.592;9.634;2024-01-11T06:35:33;-5.10;1.00
1602;DHT22;794;48.592;9.634;2024-01-11T06:38:03;-4.60;1.00
1602;DHT22;794;48.592;9.634;2024-01-11T06:40:32;-4.70;1.00
1602;DHT22;794;48.592;9.634;2024-01-11T06:42:59;-7.10;1.00
1602;DHT22;794;48.592;9.634;2024-01-11T06:45:26;-5.00;1.00
1602;DHT22;794;48.592;9.634;2024-01-11T06:47:52;-4.50;1.00
1602;DHT22;794;48.592;9.634;2024-01-11T06:50:19;-6.90;1.00
1602;DHT22;794;48.592;9.634;2024-01-11T06:52:49;-6.20;1.00
1602;DHT22;794;48.592;9.634;2024-01-11T06:55:16;-4.30;1.00
1602;DHT22;794;48.592;9.634;2024-01-11T06:57:48;-7.10;1.00
1602;DHT22;794;48.592;9.634;2024-01-11T07:00:15;-6.10;1.00
1602;DHT22;794;48.592;9.634;2024-01-11T07:02:42;-5.20;1.00
1602;DHT22;794;48.592;9.634;2024-01-11T07:05:09;-4.20;1.00
1602;DHT22;794;48.592;9.634;2024-01-11T07:07:36;-4.60;1.00
1602;DHT22;794;48.592;9.634;2024-01-11T07:10:03;-4.60;1.00
1602;DHT22;794;48.592;9.634;2024-01-11T07:12:31;-6.30;1.00
1602;DHT22;794;48.592;9.634;2024-01-11T07:14:59;-4.60;1.00
1602;DHT22;794;48.592;9.634;2024-01-11T07:17:26;-6.80;1.00
1602;DHT22;794;48.592;9.634;2024-01-11T07:19:54;-6.30;1.00
1602;DHT22;794;48.592;9.634;2024-01-11T07:22:21;-6.70;1.00
1602;DHT22;794;48.592;9.634;2024-01-11T07:24:48;-6.20;1.00
1602;DHT22;794;48.592;9.634;2024-01-11T07:27:15;-3.80;1.00
1602;DHT22;794;48.592;9.634;2024-01-11T07:29:42;-4.30;1.00
1602;DHT22;794;48.592;9.634;2024-01-11T07:32:13;-4.80;1.00
1602;DHT22;794;48.592;9.634;2024-01-11T07:34:40;-4.60;1.00
1602;DHT22;794;48.592;9.634;2024-01-11T07:37:07;-6.10;1.00
1602;DHT22;794;48.592;9.634;2024-01-11T07:39:34;-4.10;1.00
1602;DHT22;794;48.592;9.634;2024-01-11T07:42:02;-4.40;1.00
1602;DHT22;794;48.592;9.634;2024-01-11T07:44:29;-6.80;1.00
1602;DHT22;794;48.592;9.634;2024-01-11T07:46:56;-4.30;1.00
1602;DHT22;794;48.592;9.634;2024-01-11T07:49:24;-4.40;1.00
1602;DHT22;794;48.592;9.634;2024-01-11T07:51:51;-4.30;1.00
1602;DHT22;794;48.592;9.634;2024-01-11T07:54:19;-4.10;1.00
1602;DHT22;794;48.592;9.634;2024-01-11T07:56:46;-5.90;1.00
1602;DHT22;794;48.592;9.634;2024-01-11T07:59:13;-5.90;1.00
1602;DHT22;794;48.592;9.634;2024-01-11T08:01:40;-4.30;1.00
1602;DHT22;794;48.592;9.634;2024-01-11T08:04:07;-4.00;1.00
1602;DHT22;794;48.592;9.634;2024-01-11T08:06:35;-3.80;1.00
1602;DHT22;794;48.592;9.634;2024-01-11T08:09:03;-3.90;1.00
1602;DHT22;794;48.592;9.634;2024-01-11T08:11:30;-4.10;1.00
1602;DHT22;794;48.592;9.634;2024-01-11T08:13:58;-4.50;1.00
1602;DHT22;794;48.592;9.634;2024-01-11T08:16:25;-5.00;1.00
1602;DHT22;794;48.592;9.634;2024-01-11T08:18:52;-3.60;1.00
1602;DHT22;794;48.592;9.634;2024-01-11T08:21:20;-3.50;1.00
1602;DHT22;794;48.592;9.634;2024-01-11T08:23:48;-5.30;1.00
1602;DHT22;794;48.592;9.634;2024-01-11T08:26:15;-4.50;1.00
1602;DHT22;794;48.592;9.634;2024-01-11T08:28:44;-3.40;1.00
1602;DHT22;794;48.592;9.634;2024-01-11T08:31:11;-3.50;1.00
1602;DHT22;794;48.592;9.634;2024-01-11T08:33:38;-5.10;1.00
1602;DHT22;794;48.592;9.634;2024-01-11T08:36:06;-4.20;1.00
1602;DHT22;794;48.592;9.634;2024-01-11T08:38:33;-5.00;1.00
1602;DHT22;794;48.592;9.634;2024-01-11T08:41:05;-3.30;1.00
1602;DHT22;794;48.592;9.634;2024-01-11T08:43:32;-3.30;1.00
1602;DHT22;794;48.592;9.634;2024-01-11T08:45:59;-3.30;1.00
1602;DHT22;794;48.592;9.634;2024-01-11T08:48:27;-3.60;1.00
1602;DHT22;794;48.592;9.634;2024-01-11T08:50:55;-4.50;1.00
1602;DHT22;794;48.592;9.634;2024-01-11T08:53:25;-3.50;1.00
1602;DHT22;794;48.592;9.634;2024-01-11T08:55:52;-3.90;1.00
1602;DHT22;794;48.592;9.634;2024-01-11T08:58:21;-3.30;1.00
1602;DHT22;794;48.592;9.634;2024-01-11T09:00:48;-4.80;1.00
1602;DHT22;794;48.592;9.634;2024-01-11T09:03:15;-2.60;1.00
1602;DHT22;794;48.592;9.634;2024-01-11T09:05:42;-4.50;1.00
1602;DHT22;794;48.592;9.634;2024-01-11T09:08:09;-3.40;1.00
1602;DHT22;794;48.592;9.634;2024-01-11T09:10:36;-4.50;1.00
1602;DHT22;794;48.592;9.634;2024-01-11T09:13:03;-2.30;1.00
1602;DHT22;794;48.592;9.634;2024-01-11T09:15:32;-4.20;1.00
1602;DHT22;794;48.592;9.634;2024-01-11T09:18:00;-4.20;1.00
1602;DHT22;794;48.592;9.634;2024-01-11T09:20:27;-2.80;1.00
1602;DHT22;794;48.592;9.634;2024-01-11T09:22:54;-1.60;1.00
1602;DHT22;794;48.592;9.634;2024-01-11T09:25:21;-0.40;1.00
1602;DHT22;794;48.592;9.634;2024-01-11T09:27:49;-2.10;1.00
1602;DHT22;794;48.592;9.634;2024-01-11T09:30:16;-2.10;1.00
1602;DHT22;794;48.592;9.634;2024-01-11T09:32:45;-1.50;1.00
1602;DHT22;794;48.592;9.634;2024-01-11T09:35:12;0.40;1.00
1602;DHT22;794;48.592;9.634;2024-01-11T09:37:39;0.40;1.00
1602;DHT22;794;48.592;9.634;2024-01-11T09:40:06;-2.10;1.00
1602;DHT22;794;48.592;9.634;2024-01-11T09:42:36;-0.90;1.00
1602;DHT22;794;48.592;9.634;2024-01-11T09:45:08;1.30;1.00
1602;DHT22;794;48.592;9.634;2024-01-11T09:47:36;-0.10;1.00
1602;DHT22;794;48.592;9.634;2024-01-11T09:50:06;2.30;1.00
1602;DHT22;794;48.592;9.634;2024-01-11T09:52:33;0.40;1.00
1602;DHT22;794;48.592;9.634;2024-01-11T09:55:01;0.60;1.00
1602;DHT22;794;48.592;9.634;2024-01-11T09:57:29;3.00;1.00
1602;DHT22;794;48.592;9.634;2024-01-11T09:59:58;3.60;1.00
1602;DHT22;794;48.592;9.634;2024-01-11T10:02:26;3.70;1.00
1602;DHT22;794;48.592;9.634;2024-01-11T10:04:53;1.50;1.00
1602;DHT22;794;48.592;9.634;2024-01-11T10:07:22;2.20;1.00
1602;DHT22;794;48.592;9.634;2024-01-11T10:09:50;3.20;1.00
1602;DHT22;794;48.592;9.634;2024-01-11T10:12:18;1.30;1.00
1602;DHT22;794;48.592;9.634;2024-01-11T10:14:48;1.00;1.00
1602;DHT22;794;48.592;9.634;2024-01-11T10:17:15;2.90;1.00
1602;DHT22;794;48.592;9.634;2024-01-11T10:19:42;3.50;1.00
1602;DHT22;794;48.592;9.634;2024-01-11T10:22:10;4.40;1.00
1602;DHT22;794;48.592;9.634;2024-01-11T10:24:39;3.00;1.00
1602;DHT22;794;48.592;9.634;2024-01-11T10:27:09;2.60;1.00
1602;DHT22;794;48.592;9.634;2024-01-11T10:29:36;4.70;1.00
1602;DHT22;794;48.592;9.634;2024-01-11T10:32:04;5.40;1.00
1602;DHT22;794;48.592;9.634;2024-01-11T10:34:31;3.40;1.00
1602;DHT22;794;48.592;9.634;2024-01-11T10:36:59;4.60;1.00
1602;DHT22;794;48.592;9.634;2024-01-11T10:39:27;3.60;1.00
1602;DHT22;794;48.592;9.634;2024-01-11T10:42:04;4.30;1.00
1602;DHT22;794;48.592;9.634;2024-01-11T10:44:33;3.80;1.00
1602;DHT22;794;48.592;9.634;2024-01-11T10:47:02;3.90;1.00
1602;DHT22;794;48.592;9.634;2024-01-11T10:49:32;3.30;1.00
1602;DHT22;794;48.592;9.634;2024-01-11T10:52:04;3.80;1.00
1602;DHT22;794;48.592;9.634;2024-01-11T10:54:33;3.00;1.00
1602;DHT22;794;48.592;9.634;2024-01-11T10:57:03;4.30;1.00
1602;DHT22;794;48.592;9.634;2024-01-11T10:59:31;1.90;1.00
1602;DHT22;794;48.592;9.634;2024-01-11T11:02:03;4.00;1.00
1602;DHT22;794;48.592;9.634;2024-01-11T11:04:32;3.80;1.00
1602;DHT22;794;48.592;9.634;2024-01-11T11:07:01;2.60;1.00
1602;DHT22;794;48.592;9.634;2024-01-11T11:09:30;4.40;1.00
1602;DHT22;794;48.592;9.634;2024-01-11T11:11:59;2.90;1.00
1602;DHT22;794;48.592;9.634;2024-01-11T11:14:32;4.70;1.00
1602;DHT22;794;48.592;9.634;2024-01-11T11:17:01;3.20;1.00
1602;DHT22;794;48.592;9.634;2024-01-11T11:19:28;3.10;1.00
1602;DHT22;794;48.592;9.634;2024-01-11T11:21:55;2.70;1.00
1602;DHT22;794;48.592;9.634;2024-01-11T11:24:22;4.40;1.00
1602;DHT22;794;48.592;9.634;2024-01-11T11:26:49;4.10;1.00
1602;DHT22;794;48.592;9.634;2024-01-11T11:29:16;3.10;1.00
1602;DHT22;794;48.592;9.634;2024-01-11T11:31:54;3.70;1.00
1602;DHT22;794;48.592;9.634;2024-01-11T11:34:41;1.60;1.00
1602;DHT22;794;48.592;9.634;2024-01-11T11:37:10;2.00;1.00
1602;DHT22;794;48.592;9.634;2024-01-11T11:39:38;3.70;1.00
1602;DHT22;794;48.592;9.634;2024-01-11T11:42:11;1.50;1.00
1602;DHT22;794;48.592;9.634;2024-01-11T11:44:48;3.70;1.00
1602;DHT22;794;48.592;9.634;2024-01-11T11:47:23;3.30;1.00
1602;DHT22;794;48.592;9.634;2024-01-11T11:49:58;2.80;1.00
1602;DHT22;794;48.592;9.634;2024-01-11T11:52:26;1.80;1.00
1602;DHT22;794;48.592;9.634;2024-01-11T11:54:56;2.80;1.00
1602;DHT22;794;48.592;9.634;2024-01-11T11:57:23;2.90;1.00
1602;DHT22;794;48.592;9.634;2024-01-11T11:59:51;3.80;1.00
1602;DHT22;794;48.592;9.634;2024-01-11T12:02:19;-0.30;1.00
1602;DHT22;794;48.592;9.634;2024-01-11T12:04:48;0.10;1.00
1602;DHT22;794;48.592;9.634;2024-01-11T12:07:18;3.50;1.00
1602;DHT22;794;48.592;9.634;2024-01-11T12:09:46;3.60;1.00
1602;DHT22;794;48.592;9.634;2024-01-11T12:12:13;2.70;1.00
1602;DHT22;794;48.592;9.634;2024-01-11T12:14:41;1.60;1.00
1602;DHT22;794;48.592;9.634;2024-01-11T12:17:09;2.80;1.00
1602;DHT22;794;48.592;9.634;2024-01-11T12:19:36;0.90;1.00
1602;DHT22;794;48.592;9.634;2024-01-11T12:22:04;2.20;1.00
1602;DHT22;794;48.592;9.634;2024-01-11T12:24:31;2.70;1.00
1602;DHT22;794;48.592;9.634;2024-01-11T12:27:01;1.00;1.00
1602;DHT22;794;48.592;9.634;2024-01-11T12:29:28;3.00;1.00
1602;DHT22;794;48.592;9.634;2024-01-11T12:31:57;1.60;1.00
1602;DHT22;794;48.592;9.634;2024-01-11T12:34:27;3.10;1.00
1602;DHT22;794;48.592;9.634;2024-01-11T12:36:54;2.50;1.00
1602;DHT22;794;48.592;9.634;2024-01-11T12:39:27;1.70;1.00
1602;DHT22;794;48.592;9.634;2024-01-11T12:41:55;1.90;1.00
1602;DHT22;794;48.592;9.634;2024-01-11T12:44:23;2.10;1.00
1602;DHT22;794;48.592;9.634;2024-01-11T12:46:51;2.50;1.00
1602;DHT22;794;48.592;9.634;2024-01-11T12:49:18;3.80;1.00
1602;DHT22;794;48.592;9.634;2024-01-11T12:51:47;3.60;1.00
1602;DHT22;794;48.592;9.634;2024-01-11T12:54:16;1.70;1.00
1602;DHT22;794;48.592;9.634;2024-01-11T12:56:46;2.20;1.00
1602;DHT22;794;48.592;9.634;2024-01-11T12:59:13;4.00;1.00
1602;DHT22;794;48.592;9.634;2024-01-11T13:01:42;2.20;1.00
1602;DHT22;794;48.592;9.634;2024-01-11T13:04:09;2.00;1.00
1602;DHT22;794;48.592;9.634;2024-01-11T13:06:37;3.30;1.00
1602;DHT22;794;48.592;9.634;2024-01-11T13:09:08;-0.60;1.00
1602;DHT22;794;48.592;9.634;2024-01-11T13:11:40;3.50;1.00
1602;DHT22;794;48.592;9.634;2024-01-11T13:14:08;2.90;1.00
1602;DHT22;794;48.592;9.634;2024-01-11T13:16:40;0.90;1.00
1602;DHT22;794;48.592;9.634;2024-01-11T13:19:07;2.80;1.00
1602;DHT22;794;48.592;9.634;2024-01-11T13:21:36;2.90;1.00
1602;DHT22;794;48.592;9.634;2024-01-11T13:24:30;2.90;1.00
1602;DHT22;794;48.592;9.634;2024-01-11T13:26:59;0.80;1.00
1602;DHT22;794;48.592;9.634;2024-01-11T13:29:28;0.40;1.00
1602;DHT22;794;48.592;9.634;2024-01-11T13:31:55;1.30;1.00
1602;DHT22;794;48.592;9.634;2024-01-11T13:34:22;1.80;1.00
1602;DHT22;794;48.592;9.634;2024-01-11T13:36:50;2.20;1.00
1602;DHT22;794;48.592;9.634;2024-01-11T13:39:17;1.70;1.00
1602;DHT22;794;48.592;9.634;2024-01-11T13:41:46;0.40;1.00
1602;DHT22;794;48.592;9.634;2024-01-11T13:44:12;2.30;1.00
1602;DHT22;794;48.592;9.634;2024-01-11T13:46:41;2.30;1.00
1602;DHT22;794;48.592;9.634;2024-01-11T13:49:09;2.20;1.00
1602;DHT22;794;48.592;9.634;2024-01-11T13:51:37;2.40;1.00
1602;DHT22;794;48.592;9.634;2024-01-11T13:54:04;2.20;1.00
1602;DHT22;794;48.592;9.634;2024-01-11T13:56:32;0.70;1.00
1602;DHT22;794;48.592;9.634;2024-01-11T13:58:58;1.80;1.00
1602;DHT22;794;48.592;9.634;2024-01-11T14:04:42;2.00;1.00
1602;DHT22;794;48.592;9.634;2024-01-11T14:07:09;0.10;1.00
1602;DHT22;794;48.592;9.634;2024-01-11T14:09:36;1.00;1.00
1602;DHT22;794;48.592;9.634;2024-01-11T14:12:04;1.40;1.00
1602;DHT22;794;48.592;9.634;2024-01-11T14:14:31;0.40;1.00
1602;DHT22;794;48.592;9.634;2024-01-11T14:16:58;0.10;1.00
1602;DHT22;794;48.592;9.634;2024-01-11T14:19:25;1.10;1.00
1602;DHT22;794;48.592;9.634;2024-01-11T14:21:55;1.10;1.00
1602;DHT22;794;48.592;9.634;2024-01-11T14:24:23;2.40;1.00
1602;DHT22;794;48.592;9.634;2024-01-11T14:26:51;-0.40;1.00
1602;DHT22;794;48.592;9.634;2024-01-11T14:29:18;2.00;1.00
1602;DHT22;794;48.592;9.634;2024-01-11T14:31:45;-0.60;1.00
1602;DHT22;794;48.592;9.634;2024-01-11T14:34:12;-0.70;1.00
1602;DHT22;794;48.592;9.634;2024-01-11T14:36:39;-0.50;1.00
1602;DHT22;794;48.592;9.634;2024-01-11T14:39:08;1.00;1.00
1602;DHT22;794;48.592;9.634;2024-01-11T14:41:35;-0.90;1.00
1602;DHT22;794;48.592;9.634;2024-01-11T14:44:03;-0.90;1.00
1602;DHT22;794;48.592;9.634;2024-01-11T14:46:30;-0.90;1.00
1602;DHT22;794;48.592;9.634;2024-01-11T14:48:57;0.10;1.00
1602;DHT22;794;48.592;9.634;2024-01-11T14:51:26;-0.80;1.00
1602;DHT22;794;48.592;9.634;2024-01-11T14:53:55;-1.20;1.00
1602;DHT22;794;48.592;9.634;2024-01-11T14:56:23;-0.30;1.00
1602;DHT22;794;48.592;9.634;2024-01-11T14:58:50;-1.10;1.00
1602;DHT22;794;48.592;9.634;2024-01-11T15:01:17;-1.20;1.00
1602;DHT22;794;48.592;9.634;2024-01-11T15:03:44;-1.40;1.00
1602;DHT22;794;48.592;9.634;2024-01-11T15:06:11;0.30;1.00
1602;DHT22;794;48.592;9.634;2024-01-11T15:08:38;-0.90;1.00
1602;DHT22;794;48.592;9.634;2024-01-11T15:11:05;-0.90;1.00
1602;DHT22;794;48.592;9.634;2024-01-11T15:13:34;1.60;1.00
1602;DHT22;794;48.592;9.634;2024-01-11T15:16:01;1.40;1.00
1602;DHT22;794;48.592;9.634;2024-01-11T15:18:28;-0.80;1.00
1602;DHT22;794;48.592;9.634;2024-01-11T15:20:55;1.10;1.00
1602;DHT22;794;48.592;9.634;2024-01-11T15:23:22;-1.40;1.00
1602;DHT22;794;48.592;9.634;2024-01-11T15:25:49;0.60;1.00
1602;DHT22;794;48.592;9.634;2024-01-11T15:28:16;0.50;1.00
1602;DHT22;794;48.592;9.634;2024-01-11T15:30:45;-1.10;1.00
1602;DHT22;794;48.592;9.634;2024-01-11T15:33:12;-1.80;1.00
1602;DHT22;794;48.592;9.634;2024-01-11T15:35:40;-2.00;1.00
1602;DHT22;794;48.592;9.634;2024-01-11T15:38:07;-1.70;1.00
1602;DHT22;794;48.592;9.634;2024-01-11T15:40:34;-0.30;1.00
1602;DHT22;794;48.592;9.634;2024-01-11T15:43:01;-2.30;1.00
1602;DHT22;794;48.592;9.634;2024-01-11T15:45:29;-2.10;1.00
1602;DHT22;794;48.592;9.634;2024-01-11T15:48:00;-2.10;1.00
1602;DHT22;794;48.592;9.634;2024-01-11T15:50:28;-2.60;1.00
1602;DHT22;794;48.592;9.634;2024-01-11T15:52:55;-2.90;1.00
1602;DHT22;794;48.592;9.634;2024-01-11T15:55:22;-0.40;1.00
1602;DHT22;794;48.592;9.634;2024-01-11T15:57:51;-2.90;1.00
1602;DHT22;794;48.592;9.634;2024-01-11T16:00:20;-0.10;1.00
1602;DHT22;794;48.592;9.634;2024-01-11T16:02:47;-2.80;1.00
1602;DHT22;794;48.592;9.634;2024-01-11T16:05:15;-0.70;1.00
1602;DHT22;794;48.592;9.634;2024-01-11T16:07:42;-1.40;1.00
1602;DHT22;794;48.592;9.634;2024-01-11T16:10:09;-2.10;1.00
1602;DHT22;794;48.592;9.634;2024-01-11T16:12:36;-2.80;1.00
1602;DHT22;794;48.592;9.634;2024-01-11T16:15:07;-2.90;1.00
1602;DHT22;794;48.592;9.634;2024-01-11T16:17:35;-3.10;1.00
1602;DHT22;794;48.592;9.634;2024-01-11T16:20:03;-0.60;1.00
1602;DHT22;794;48.592;9.634;2024-01-11T16:22:33;-3.00;1.00
1602;DHT22;794;48.592;9.634;2024-01-11T16:25:00;-3.10;1.00
1602;DHT22;794;48.592;9.634;2024-01-11T16:27:28;-0.80;1.00
1602;DHT22;794;48.592;9.634;2024-01-11T16:29:57;-3.30;1.00
1602;DHT22;794;48.592;9.634;2024-01-11T16:32:24;-1.70;1.00
1602;DHT22;794;48.592;9.634;2024-01-11T16:34:51;-0.80;1.00
1602;DHT22;794;48.592;9.634;2024-01-11T16:37:18;-2.20;1.00
1602;DHT22;794;48.592;9.634;2024-01-11T16:39:47;-3.50;1.00
1602;DHT22;794;48.592;9.634;2024-01-11T16:42:14;-2.40;1.00
1602;DHT22;794;48.592;9.634;2024-01-11T16:44:43;-3.60;1.00
1602;DHT22;794;48.592;9.634;2024-01-11T16:47:13;-2.00;1.00